Dellwood, Wisconsin
Current Conditions -  °F | °C
As of 3:58 AM on Tuesday 21 Oct 2014 (Local Time) from KVOK Reporting Station
Overcast Overcast  
Wind Chill: 41°   Ceiling: 3200
Heat Index: 41°   Visibility: 10mi
Dew Point: 41°   Wind: 3mph
Humidity: 100%   Direction: 280°W
Pressure: 30.11"   Gusts: NA
Location:  43.98°N, 89.94°W
Report Text: KVOK 210858Z AUTO 28003KT 10SM OVC032 05/05 A3011 RMK AO2 SLP203 T00480048 52016
Loading
Personal Weather Stations






























Interactive Weather Map
Tropical Storm Tracking
New forecast layout! Learn more

10-Day Weather Forecast

Advertisements
Track Severe Weather on mobile